Terminal Aerodrome Forecast
Issued by NWS

Home | Current Version | Previous Version | Graphics & Text | Print | Product List | Glossary On
Versions: 1 2 3 4 5 6 7 8 9 10 11 12 13 14 15 16 17 18 19 20 21
000
FTUS43 KGRB 271300 AAA
TAFCWA
TAF AMD
KCWA 271358Z 2714/2812 01010G16KT P6SM BKN030
      TEMPO 2714/2716 SCT030
     FM271600 34007KT P6SM FEW035
     FM272200 03003KT P6SM SKC=

USA.gov is the U.S. government's official web portal to all federal, state and local government web resources and services.